sensor_id;sensor_type;location;lat;lon;timestamp;P1;durP1;ratioP1;P2;durP2;ratioP2
66761;SDS011;53672;48.176;16.338;2022-12-18T00:01:34;11.10;;;4.53;;
66761;SDS011;53672;48.176;16.338;2022-12-18T00:06:37;11.33;;;4.87;;
66761;SDS011;53672;48.176;16.338;2022-12-18T00:11:37;12.75;;;5.00;;
66761;SDS011;53672;48.176;16.338;2022-12-18T00:16:38;13.53;;;4.90;;
66761;SDS011;53672;48.176;16.338;2022-12-18T00:21:40;14.95;;;5.10;;
66761;SDS011;53672;48.176;16.338;2022-12-18T00:26:42;14.70;;;5.20;;
66761;SDS011;53672;48.176;16.338;2022-12-18T00:31:43;16.97;;;5.73;;
66761;SDS011;53672;48.176;16.338;2022-12-18T00:36:47;15.82;;;5.13;;
66761;SDS011;53672;48.176;16.338;2022-12-18T00:41:47;14.37;;;5.40;;
66761;SDS011;53672;48.176;16.338;2022-12-18T00:46:48;15.03;;;5.60;;
66761;SDS011;53672;48.176;16.338;2022-12-18T00:51:50;16.40;;;5.70;;
66761;SDS011;53672;48.176;16.338;2022-12-18T00:56:50;13.93;;;5.35;;
66761;SDS011;53672;48.176;16.338;2022-12-18T01:01:51;13.40;;;5.30;;
66761;SDS011;53672;48.176;16.338;2022-12-18T01:06:52;14.70;;;4.73;;
66761;SDS011;53672;48.176;16.338;2022-12-18T01:11:53;12.43;;;4.75;;
66761;SDS011;53672;48.176;16.338;2022-12-18T01:16:53;13.20;;;5.00;;
66761;SDS011;53672;48.176;16.338;2022-12-18T01:21:55;14.73;;;5.17;;
66761;SDS011;53672;48.176;16.338;2022-12-18T01:26:56;14.45;;;5.07;;
66761;SDS011;53672;48.176;16.338;2022-12-18T01:31:57;15.20;;;6.03;;
66761;SDS011;53672;48.176;16.338;2022-12-18T01:36:59;16.40;;;6.33;;
66761;SDS011;53672;48.176;16.338;2022-12-18T01:42:02;20.50;;;7.13;;
66761;SDS011;53672;48.176;16.338;2022-12-18T01:47:08;22.77;;;8.00;;
66761;SDS011;53672;48.176;16.338;2022-12-18T01:52:14;22.40;;;7.80;;
66761;SDS011;53672;48.176;16.338;2022-12-18T01:57:15;21.48;;;7.20;;
66761;SDS011;53672;48.176;16.338;2022-12-18T02:02:16;22.48;;;7.75;;
66761;SDS011;53672;48.176;16.338;2022-12-18T02:07:22;23.05;;;8.20;;
66761;SDS011;53672;48.176;16.338;2022-12-18T02:12:30;20.07;;;7.70;;
66761;SDS011;53672;48.176;16.338;2022-12-18T02:17:41;22.88;;;8.68;;
66761;SDS011;53672;48.176;16.338;2022-12-18T02:22:57;25.45;;;9.10;;
66761;SDS011;53672;48.176;16.338;2022-12-18T02:28:08;24.80;;;8.57;;
66761;SDS011;53672;48.176;16.338;2022-12-18T02:33:13;30.08;;;9.32;;
66761;SDS011;53672;48.176;16.338;2022-12-18T02:38:15;27.77;;;9.40;;
66761;SDS011;53672;48.176;16.338;2022-12-18T02:43:18;26.20;;;9.25;;
66761;SDS011;53672;48.176;16.338;2022-12-18T02:48:19;25.95;;;9.15;;
66761;SDS011;53672;48.176;16.338;2022-12-18T02:53:24;30.48;;;9.75;;
66761;SDS011;53672;48.176;16.338;2022-12-18T02:58:36;28.02;;;10.20;;
66761;SDS011;53672;48.176;16.338;2022-12-18T03:03:45;29.07;;;10.37;;
66761;SDS011;53672;48.176;16.338;2022-12-18T03:08:52;30.40;;;10.15;;
66761;SDS011;53672;48.176;16.338;2022-12-18T03:13:59;28.55;;;9.82;;
66761;SDS011;53672;48.176;16.338;2022-12-18T03:19:01;27.92;;;10.38;;
66761;SDS011;53672;48.176;16.338;2022-12-18T03:24:06;25.67;;;9.80;;
66761;SDS011;53672;48.176;16.338;2022-12-18T03:29:12;29.67;;;10.77;;
66761;SDS011;53672;48.176;16.338;2022-12-18T03:34:20;28.48;;;9.98;;
66761;SDS011;53672;48.176;16.338;2022-12-18T03:39:24;24.55;;;8.98;;
66761;SDS011;53672;48.176;16.338;2022-12-18T03:44:28;30.38;;;10.02;;
66761;SDS011;53672;48.176;16.338;2022-12-18T03:49:33;27.85;;;9.75;;
66761;SDS011;53672;48.176;16.338;2022-12-18T03:54:36;28.93;;;10.30;;
66761;SDS011;53672;48.176;16.338;2022-12-18T03:59:40;30.05;;;10.43;;
66761;SDS011;53672;48.176;16.338;2022-12-18T04:04:42;30.05;;;9.73;;
66761;SDS011;53672;48.176;16.338;2022-12-18T04:09:44;28.35;;;10.18;;
66761;SDS011;53672;48.176;16.338;2022-12-18T04:14:47;31.42;;;10.48;;
66761;SDS011;53672;48.176;16.338;2022-12-18T04:19:48;32.80;;;10.17;;
66761;SDS011;53672;48.176;16.338;2022-12-18T04:24:48;25.70;;;9.35;;
66761;SDS011;53672;48.176;16.338;2022-12-18T04:29:50;21.83;;;7.40;;
66761;SDS011;53672;48.176;16.338;2022-12-18T04:34:50;25.60;;;8.07;;
66761;SDS011;53672;48.176;16.338;2022-12-18T04:39:51;25.70;;;7.97;;
66761;SDS011;53672;48.176;16.338;2022-12-18T04:44:53;21.67;;;7.13;;
66761;SDS011;53672;48.176;16.338;2022-12-18T04:49:53;18.70;;;6.82;;
66761;SDS011;53672;48.176;16.338;2022-12-18T04:54:54;24.80;;;7.40;;
66761;SDS011;53672;48.176;16.338;2022-12-18T04:59:56;25.10;;;8.33;;
66761;SDS011;53672;48.176;16.338;2022-12-18T05:04:56;23.90;;;8.63;;
66761;SDS011;53672;48.176;16.338;2022-12-18T05:09:56;26.23;;;8.47;;
66761;SDS011;53672;48.176;16.338;2022-12-18T05:14:58;25.53;;;7.87;;
66761;SDS011;53672;48.176;16.338;2022-12-18T05:19:59;24.77;;;8.10;;
66761;SDS011;53672;48.176;16.338;2022-12-18T05:24:59;25.87;;;8.27;;
66761;SDS011;53672;48.176;16.338;2022-12-18T05:30:01;24.63;;;8.43;;
66761;SDS011;53672;48.176;16.338;2022-12-18T05:35:02;23.88;;;8.60;;
66761;SDS011;53672;48.176;16.338;2022-12-18T05:40:04;23.92;;;7.93;;
66761;SDS011;53672;48.176;16.338;2022-12-18T05:45:07;25.13;;;7.43;;
66761;SDS011;53672;48.176;16.338;2022-12-18T05:50:08;25.03;;;8.07;;
66761;SDS011;53672;48.176;16.338;2022-12-18T05:55:09;25.05;;;8.38;;
66761;SDS011;53672;48.176;16.338;2022-12-18T06:00:11;27.37;;;8.07;;
66761;SDS011;53672;48.176;16.338;2022-12-18T06:05:13;23.27;;;7.82;;
66761;SDS011;53672;48.176;16.338;2022-12-18T06:10:14;25.15;;;8.07;;
66761;SDS011;53672;48.176;16.338;2022-12-18T06:15:16;23.93;;;7.97;;
66761;SDS011;53672;48.176;16.338;2022-12-18T06:20:16;25.75;;;8.50;;
66761;SDS011;53672;48.176;16.338;2022-12-18T06:25:17;26.00;;;9.07;;
66761;SDS011;53672;48.176;16.338;2022-12-18T06:30:19;24.53;;;8.33;;
66761;SDS011;53672;48.176;16.338;2022-12-18T06:35:20;25.00;;;8.52;;
66761;SDS011;53672;48.176;16.338;2022-12-18T06:40:20;24.43;;;8.20;;
66761;SDS011;53672;48.176;16.338;2022-12-18T06:45:22;26.93;;;8.50;;
66761;SDS011;53672;48.176;16.338;2022-12-18T06:50:23;25.25;;;9.30;;
66761;SDS011;53672;48.176;16.338;2022-12-18T06:55:23;23.43;;;8.30;;
66761;SDS011;53672;48.176;16.338;2022-12-18T07:00:25;28.27;;;8.13;;
66761;SDS011;53672;48.176;16.338;2022-12-18T07:05:25;24.05;;;8.00;;
66761;SDS011;53672;48.176;16.338;2022-12-18T07:10:26;24.70;;;8.43;;
66761;SDS011;53672;48.176;16.338;2022-12-18T07:15:28;23.90;;;8.20;;
66761;SDS011;53672;48.176;16.338;2022-12-18T07:20:28;26.77;;;8.63;;
66761;SDS011;53672;48.176;16.338;2022-12-18T07:25:29;26.30;;;9.03;;
66761;SDS011;53672;48.176;16.338;2022-12-18T07:30:30;28.25;;;9.65;;
66761;SDS011;53672;48.176;16.338;2022-12-18T07:35:32;26.10;;;8.63;;
66761;SDS011;53672;48.176;16.338;2022-12-18T07:40:32;22.95;;;9.02;;
66761;SDS011;53672;48.176;16.338;2022-12-18T07:45:34;24.47;;;9.43;;
66761;SDS011;53672;48.176;16.338;2022-12-18T07:50:35;27.13;;;9.77;;
66761;SDS011;53672;48.176;16.338;2022-12-18T07:55:36;29.65;;;10.18;;
66761;SDS011;53672;48.176;16.338;2022-12-18T08:00:38;25.50;;;9.37;;
66761;SDS011;53672;48.176;16.338;2022-12-18T08:05:39;30.25;;;10.23;;
66761;SDS011;53672;48.176;16.338;2022-12-18T08:10:39;32.17;;;10.40;;
66761;SDS011;53672;48.176;16.338;2022-12-18T08:15:41;26.17;;;9.67;;
66761;SDS011;53672;48.176;16.338;2022-12-18T08:20:42;25.95;;;10.27;;
66761;SDS011;53672;48.176;16.338;2022-12-18T08:25:42;29.23;;;10.60;;
66761;SDS011;53672;48.176;16.338;2022-12-18T08:30:44;29.10;;;11.00;;
66761;SDS011;53672;48.176;16.338;2022-12-18T08:35:44;29.95;;;11.02;;
66761;SDS011;53672;48.176;16.338;2022-12-18T08:40:45;29.85;;;11.57;;
66761;SDS011;53672;48.176;16.338;2022-12-18T08:45:47;25.80;;;10.67;;
66761;SDS011;53672;48.176;16.338;2022-12-18T08:50:53;36.57;;;12.43;;
66761;SDS011;53672;48.176;16.338;2022-12-18T08:55:55;33.47;;;12.40;;
66761;SDS011;53672;48.176;16.338;2022-12-18T09:01:00;36.35;;;13.80;;
66761;SDS011;53672;48.176;16.338;2022-12-18T09:06:01;44.03;;;15.40;;
66761;SDS011;53672;48.176;16.338;2022-12-18T09:11:02;44.47;;;15.50;;
66761;SDS011;53672;48.176;16.338;2022-12-18T09:16:04;41.97;;;14.40;;
66761;SDS011;53672;48.176;16.338;2022-12-18T09:21:09;41.00;;;14.37;;
66761;SDS011;53672;48.176;16.338;2022-12-18T09:26:11;45.10;;;14.60;;
66761;SDS011;53672;48.176;16.338;2022-12-18T09:31:13;39.30;;;13.83;;
66761;SDS011;53672;48.176;16.338;2022-12-18T09:36:14;40.40;;;14.95;;
66761;SDS011;53672;48.176;16.338;2022-12-18T09:41:19;41.37;;;14.50;;
66761;SDS011;53672;48.176;16.338;2022-12-18T09:46:34;38.65;;;12.95;;
66761;SDS011;53672;48.176;16.338;2022-12-18T09:51:39;45.15;;;15.23;;
66761;SDS011;53672;48.176;16.338;2022-12-18T09:56:43;46.80;;;15.30;;
66761;SDS011;53672;48.176;16.338;2022-12-18T10:01:45;41.15;;;14.60;;
66761;SDS011;53672;48.176;16.338;2022-12-18T10:06:49;45.17;;;14.53;;
66761;SDS011;53672;48.176;16.338;2022-12-18T10:11:56;39.33;;;13.65;;
66761;SDS011;53672;48.176;16.338;2022-12-18T10:17:10;37.63;;;13.27;;
66761;SDS011;53672;48.176;16.338;2022-12-18T10:22:20;40.50;;;14.63;;
66761;SDS011;53672;48.176;16.338;2022-12-18T10:27:31;38.28;;;14.50;;
66761;SDS011;53672;48.176;16.338;2022-12-18T10:32:33;38.93;;;12.80;;
66761;SDS011;53672;48.176;16.338;2022-12-18T10:37:33;41.67;;;13.27;;
66761;SDS011;53672;48.176;16.338;2022-12-18T10:42:34;37.85;;;12.70;;
66761;SDS011;53672;48.176;16.338;2022-12-18T10:47:35;34.83;;;12.98;;
66761;SDS011;53672;48.176;16.338;2022-12-18T10:52:41;37.13;;;12.60;;
66761;SDS011;53672;48.176;16.338;2022-12-18T10:57:42;33.17;;;11.93;;
66761;SDS011;53672;48.176;16.338;2022-12-18T11:02:43;30.07;;;11.03;;
66761;SDS011;53672;48.176;16.338;2022-12-18T11:07:46;35.90;;;12.60;;
66761;SDS011;53672;48.176;16.338;2022-12-18T11:12:48;39.03;;;12.13;;
66761;SDS011;53672;48.176;16.338;2022-12-18T11:17:50;38.77;;;13.60;;
66761;SDS011;53672;48.176;16.338;2022-12-18T11:22:55;35.97;;;11.93;;
66761;SDS011;53672;48.176;16.338;2022-12-18T11:27:58;34.92;;;12.00;;
66761;SDS011;53672;48.176;16.338;2022-12-18T11:33:03;35.17;;;12.10;;
66761;SDS011;53672;48.176;16.338;2022-12-18T11:38:06;38.53;;;12.93;;
66761;SDS011;53672;48.176;16.338;2022-12-18T11:43:18;36.05;;;11.77;;
66761;SDS011;53672;48.176;16.338;2022-12-18T11:48:27;37.53;;;13.30;;
66761;SDS011;53672;48.176;16.338;2022-12-18T11:53:30;35.97;;;13.20;;
66761;SDS011;53672;48.176;16.338;2022-12-18T11:58:45;36.20;;;12.17;;
66761;SDS011;53672;48.176;16.338;2022-12-18T12:03:53;36.10;;;12.88;;
66761;SDS011;53672;48.176;16.338;2022-12-18T12:09:16;41.30;;;13.60;;
66761;SDS011;53672;48.176;16.338;2022-12-18T12:14:29;38.80;;;12.52;;
66761;SDS011;53672;48.176;16.338;2022-12-18T12:19:45;38.05;;;13.40;;
66761;SDS011;53672;48.176;16.338;2022-12-18T12:24:55;41.70;;;14.23;;
66761;SDS011;53672;48.176;16.338;2022-12-18T12:30:08;37.67;;;13.15;;
66761;SDS011;53672;48.176;16.338;2022-12-18T12:35:15;39.13;;;13.83;;
66761;SDS011;53672;48.176;16.338;2022-12-18T12:40:33;35.83;;;12.68;;
66761;SDS011;53672;48.176;16.338;2022-12-18T12:45:36;42.60;;;13.93;;
66761;SDS011;53672;48.176;16.338;2022-12-18T12:50:44;33.53;;;11.93;;
66761;SDS011;53672;48.176;16.338;2022-12-18T12:55:46;40.00;;;13.73;;
66761;SDS011;53672;48.176;16.338;2022-12-18T13:00:49;41.80;;;14.33;;
66761;SDS011;53672;48.176;16.338;2022-12-18T13:05:58;40.08;;;12.70;;
66761;SDS011;53672;48.176;16.338;2022-12-18T13:11:03;41.08;;;13.35;;
66761;SDS011;53672;48.176;16.338;2022-12-18T13:16:24;39.47;;;13.93;;
66761;SDS011;53672;48.176;16.338;2022-12-18T13:21:28;44.10;;;13.75;;
66761;SDS011;53672;48.176;16.338;2022-12-18T13:26:30;41.60;;;14.40;;
66761;SDS011;53672;48.176;16.338;2022-12-18T13:42:41;40.97;;;14.17;;
66761;SDS011;53672;48.176;16.338;2022-12-18T13:47:41;48.07;;;15.47;;
66761;SDS011;53672;48.176;16.338;2022-12-18T13:52:44;44.33;;;15.50;;
66761;SDS011;53672;48.176;16.338;2022-12-18T13:57:45;47.60;;;14.77;;
66761;SDS011;53672;48.176;16.338;2022-12-18T14:02:46;38.50;;;13.25;;
66761;SDS011;53672;48.176;16.338;2022-12-18T14:07:48;42.60;;;13.47;;
66761;SDS011;53672;48.176;16.338;2022-12-18T14:12:48;45.67;;;15.30;;
66761;SDS011;53672;48.176;16.338;2022-12-18T14:17:50;46.67;;;15.82;;
66761;SDS011;53672;48.176;16.338;2022-12-18T14:22:56;52.92;;;16.27;;
66761;SDS011;53672;48.176;16.338;2022-12-18T14:28:02;45.77;;;15.33;;
66761;SDS011;53672;48.176;16.338;2022-12-18T14:33:13;55.38;;;16.95;;
66761;SDS011;53672;48.176;16.338;2022-12-18T14:38:21;52.07;;;16.77;;
66761;SDS011;53672;48.176;16.338;2022-12-18T14:43:24;40.00;;;12.95;;
66761;SDS011;53672;48.176;16.338;2022-12-18T14:48:32;50.40;;;16.38;;
66761;SDS011;53672;48.176;16.338;2022-12-18T14:53:39;48.37;;;15.77;;
66761;SDS011;53672;48.176;16.338;2022-12-18T14:58:45;60.10;;;18.42;;
66761;SDS011;53672;48.176;16.338;2022-12-18T15:03:48;58.50;;;17.87;;
66761;SDS011;53672;48.176;16.338;2022-12-18T15:08:53;59.97;;;19.08;;
66761;SDS011;53672;48.176;16.338;2022-12-18T15:13:54;54.00;;;17.87;;
66761;SDS011;53672;48.176;16.338;2022-12-18T15:18:58;61.45;;;19.88;;
66761;SDS011;53672;48.176;16.338;2022-12-18T15:24:02;64.63;;;19.23;;
66761;SDS011;53672;48.176;16.338;2022-12-18T15:29:03;52.53;;;16.02;;
66761;SDS011;53672;48.176;16.338;2022-12-18T15:34:12;59.17;;;17.83;;
66761;SDS011;53672;48.176;16.338;2022-12-18T15:39:19;60.53;;;18.40;;
66761;SDS011;53672;48.176;16.338;2022-12-18T15:44:21;52.13;;;15.52;;
66761;SDS011;53672;48.176;16.338;2022-12-18T15:49:23;52.10;;;16.17;;
66761;SDS011;53672;48.176;16.338;2022-12-18T15:54:30;41.83;;;14.00;;
66761;SDS011;53672;48.176;16.338;2022-12-18T15:59:31;58.13;;;17.27;;
66761;SDS011;53672;48.176;16.338;2022-12-18T16:04:32;49.77;;;14.93;;
66761;SDS011;53672;48.176;16.338;2022-12-18T16:09:35;57.13;;;17.88;;
66761;SDS011;53672;48.176;16.338;2022-12-18T16:14:37;48.07;;;15.03;;
66761;SDS011;53672;48.176;16.338;2022-12-18T16:19:38;55.47;;;16.40;;
66761;SDS011;53672;48.176;16.338;2022-12-18T16:24:40;61.30;;;16.73;;
66761;SDS011;53672;48.176;16.338;2022-12-18T16:29:41;50.50;;;15.32;;
66761;SDS011;53672;48.176;16.338;2022-12-18T16:34:42;42.60;;;13.00;;
66761;SDS011;53672;48.176;16.338;2022-12-18T16:39:45;50.33;;;16.02;;
66761;SDS011;53672;48.176;16.338;2022-12-18T16:44:46;47.95;;;16.25;;
66761;SDS011;53672;48.176;16.338;2022-12-18T16:49:48;43.83;;;14.60;;
66761;SDS011;53672;48.176;16.338;2022-12-18T16:54:51;40.97;;;12.90;;
66761;SDS011;53672;48.176;16.338;2022-12-18T16:59:52;46.93;;;14.90;;
66761;SDS011;53672;48.176;16.338;2022-12-18T17:04:54;41.03;;;13.88;;
66761;SDS011;53672;48.176;16.338;2022-12-18T17:09:58;48.23;;;15.00;;
66761;SDS011;53672;48.176;16.338;2022-12-18T17:14:59;41.10;;;15.32;;
66761;SDS011;53672;48.176;16.338;2022-12-18T17:20:01;44.60;;;14.80;;
66761;SDS011;53672;48.176;16.338;2022-12-18T17:25:04;44.70;;;15.07;;
66761;SDS011;53672;48.176;16.338;2022-12-18T17:30:06;42.97;;;15.55;;
66761;SDS011;53672;48.176;16.338;2022-12-18T17:35:08;46.93;;;15.50;;
66761;SDS011;53672;48.176;16.338;2022-12-18T17:40:12;33.75;;;10.15;;
66761;SDS011;53672;48.176;16.338;2022-12-18T17:45:13;42.67;;;13.07;;
66761;SDS011;53672;48.176;16.338;2022-12-18T17:50:14;29.00;;;9.37;;
66761;SDS011;53672;48.176;16.338;2022-12-18T17:55:17;41.08;;;13.95;;
66761;SDS011;53672;48.176;16.338;2022-12-18T18:00:18;36.77;;;12.77;;
66761;SDS011;53672;48.176;16.338;2022-12-18T18:05:20;33.75;;;12.43;;
66761;SDS011;53672;48.176;16.338;2022-12-18T18:10:34;25.48;;;9.30;;
66761;SDS011;53672;48.176;16.338;2022-12-18T18:15:35;33.95;;;12.23;;
66761;SDS011;53672;48.176;16.338;2022-12-18T18:20:41;31.63;;;9.70;;
66761;SDS011;53672;48.176;16.338;2022-12-18T18:25:43;38.50;;;12.27;;
66761;SDS011;53672;48.176;16.338;2022-12-18T18:30:44;29.38;;;10.35;;
66761;SDS011;53672;48.176;16.338;2022-12-18T18:35:45;33.47;;;12.27;;
66761;SDS011;53672;48.176;16.338;2022-12-18T18:40:47;21.88;;;6.32;;
66761;SDS011;53672;48.176;16.338;2022-12-18T18:45:56;30.73;;;11.20;;
66761;SDS011;53672;48.176;16.338;2022-12-18T18:50:59;34.50;;;12.23;;
66761;SDS011;53672;48.176;16.338;2022-12-18T18:56:03;32.47;;;11.18;;
66761;SDS011;53672;48.176;16.338;2022-12-18T19:01:04;38.97;;;12.40;;
66761;SDS011;53672;48.176;16.338;2022-12-18T19:06:07;26.20;;;10.63;;
66761;SDS011;53672;48.176;16.338;2022-12-18T19:11:13;21.97;;;7.27;;
66761;SDS011;53672;48.176;16.338;2022-12-18T19:16:15;33.53;;;12.13;;
66761;SDS011;53672;48.176;16.338;2022-12-18T19:21:17;25.75;;;8.65;;
66761;SDS011;53672;48.176;16.338;2022-12-18T19:26:19;34.97;;;10.43;;
66761;SDS011;53672;48.176;16.338;2022-12-18T19:31:20;21.70;;;7.47;;
66761;SDS011;53672;48.176;16.338;2022-12-18T19:36:22;27.87;;;8.43;;
66761;SDS011;53672;48.176;16.338;2022-12-18T19:41:26;32.53;;;11.23;;
66761;SDS011;53672;48.176;16.338;2022-12-18T19:46:27;29.47;;;10.63;;
66761;SDS011;53672;48.176;16.338;2022-12-18T19:51:29;34.85;;;11.50;;
66761;SDS011;53672;48.176;16.338;2022-12-18T19:56:33;39.40;;;12.93;;
66761;SDS011;53672;48.176;16.338;2022-12-18T20:01:35;40.60;;;13.13;;
66761;SDS011;53672;48.176;16.338;2022-12-18T20:06:44;39.97;;;11.68;;
66761;SDS011;53672;48.176;16.338;2022-12-18T20:11:48;37.63;;;12.23;;
66761;SDS011;53672;48.176;16.338;2022-12-18T20:16:50;41.65;;;14.00;;
66761;SDS011;53672;48.176;16.338;2022-12-18T20:21:51;41.90;;;12.83;;
66761;SDS011;53672;48.176;16.338;2022-12-18T20:26:53;37.53;;;12.43;;
66761;SDS011;53672;48.176;16.338;2022-12-18T20:31:54;38.47;;;12.40;;
66761;SDS011;53672;48.176;16.338;2022-12-18T20:36:55;32.75;;;10.48;;
66761;SDS011;53672;48.176;16.338;2022-12-18T20:41:58;23.00;;;7.90;;
66761;SDS011;53672;48.176;16.338;2022-12-18T20:46:59;35.40;;;11.80;;
66761;SDS011;53672;48.176;16.338;2022-12-18T20:52:01;38.37;;;13.07;;
66761;SDS011;53672;48.176;16.338;2022-12-18T20:57:03;44.08;;;13.25;;
66761;SDS011;53672;48.176;16.338;2022-12-18T21:02:04;35.60;;;12.27;;
66761;SDS011;53672;48.176;16.338;2022-12-18T21:07:05;36.65;;;12.80;;
66761;SDS011;53672;48.176;16.338;2022-12-18T21:12:09;44.33;;;13.67;;
66761;SDS011;53672;48.176;16.338;2022-12-18T21:17:13;39.35;;;12.85;;
66761;SDS011;53672;48.176;16.338;2022-12-18T21:22:14;29.58;;;10.70;;
66761;SDS011;53672;48.176;16.338;2022-12-18T21:27:16;37.27;;;12.50;;
66761;SDS011;53672;48.176;16.338;2022-12-18T21:32:16;33.97;;;11.98;;
66761;SDS011;53672;48.176;16.338;2022-12-18T21:37:17;40.73;;;14.07;;
66761;SDS011;53672;48.176;16.338;2022-12-18T21:42:19;41.10;;;14.03;;
66761;SDS011;53672;48.176;16.338;2022-12-18T21:47:19;44.20;;;15.95;;
66761;SDS011;53672;48.176;16.338;2022-12-18T21:52:20;46.80;;;16.43;;
66761;SDS011;53672;48.176;16.338;2022-12-18T21:57:22;42.40;;;14.48;;
66761;SDS011;53672;48.176;16.338;2022-12-18T22:02:23;44.40;;;14.73;;
66761;SDS011;53672;48.176;16.338;2022-12-18T22:07:23;40.60;;;13.70;;
66761;SDS011;53672;48.176;16.338;2022-12-18T22:12:25;41.22;;;14.13;;
66761;SDS011;53672;48.176;16.338;2022-12-18T22:17:26;42.28;;;14.77;;
66761;SDS011;53672;48.176;16.338;2022-12-18T22:22:26;37.43;;;13.40;;
66761;SDS011;53672;48.176;16.338;2022-12-18T22:27:28;45.43;;;15.33;;
66761;SDS011;53672;48.176;16.338;2022-12-18T22:32:29;40.58;;;13.68;;
66761;SDS011;53672;48.176;16.338;2022-12-18T22:37:30;39.20;;;14.75;;
66761;SDS011;53672;48.176;16.338;2022-12-18T22:42:32;32.45;;;11.60;;
66761;SDS011;53672;48.176;16.338;2022-12-18T22:47:32;30.23;;;11.23;;
66761;SDS011;53672;48.176;16.338;2022-12-18T22:52:33;36.13;;;13.03;;
66761;SDS011;53672;48.176;16.338;2022-12-18T22:57:35;41.95;;;14.07;;
66761;SDS011;53672;48.176;16.338;2022-12-18T23:02:35;44.25;;;15.60;;
66761;SDS011;53672;48.176;16.338;2022-12-18T23:07:36;29.90;;;10.07;;
66761;SDS011;53672;48.176;16.338;2022-12-18T23:12:38;50.17;;;15.70;;
66761;SDS011;53672;48.176;16.338;2022-12-18T23:17:39;34.28;;;11.20;;
66761;SDS011;53672;48.176;16.338;2022-12-18T23:22:39;26.07;;;10.30;;
66761;SDS011;53672;48.176;16.338;2022-12-18T23:27:41;37.63;;;12.07;;
66761;SDS011;53672;48.176;16.338;2022-12-18T23:32:42;28.47;;;9.17;;
66761;SDS011;53672;48.176;16.338;2022-12-18T23:37:42;35.37;;;12.47;;
66761;SDS011;53672;48.176;16.338;2022-12-18T23:42:44;39.63;;;13.68;;
66761;SDS011;53672;48.176;16.338;2022-12-18T23:47:44;37.33;;;13.23;;
66761;SDS011;53672;48.176;16.338;2022-12-18T23:52:45;29.53;;;9.90;;
66761;SDS011;53672;48.176;16.338;2022-12-18T23:57:47;30.90;;;10.77;;
